Thursday, September 29, 2016, 11:10 AM EDT

KMDT, Harrisburg International Airport

Location: Middletown, PA, United States Lat: 40.2
Local Time: 11:10 AM EDT (15:10 GMT) Lon: -76.767
Time Zone: US/Eastern Elev: 308 ft

Show me the last for .
Show Decoded

2016-09-29 10:13 METAR KMDT 291413Z 10012G19KT 10SM -RA BKN014 OVC024 16/15 A3022 RMK AO2 P0000
                 T01610150 =
2016-09-29 09:56 METAR KMDT 291356Z 11010KT 10SM -RA SCT010 BKN023 OVC042 16/16 A3021 =
2016-09-29 09:38 METAR KMDT 291338Z 11015G20KT 4SM RA BR SCT011 BKN037 OVC070 16/15 A3020 =
2016-09-29 09:31 METAR KMDT 291331Z 11012G24KT 3SM +RA BR SCT011 BKN027 OVC055 16/15 A3020 RMK
                 AO2 P0024 T01560150 =
2016-09-29 09:19 METAR KMDT 291319Z 11013KT 1 1/2SM R13/5000VP6000FT +RA BR FEW007 SCT011 OVC025
                 16/15 A3021 RMK AO2 P0018 T01560150 =
2016-09-29 09:03 METAR KMDT 291303Z 10012G20KT 1 1/2SM R13/5500VP6000FT +RA BR BKN011 OVC020
                 16/15 A3020 RMK AO2 P0007 T01560150 =
2016-09-29 08:56 METAR KMDT 291256Z 11013KT 2SM R13/6000VP6000FT +RA BR OVC011 16/15 A3021 RMK
                 AO2 SLP231 P0013 T01560150 =
2016-09-29 07:56 METAR KMDT 291156Z 11017G23KT 5SM -RA BR OVC011 16/15 A3018 RMK AO2 SLP219 P0009
                 60036 70057 T01560150 10156 20150 53022 =
2016-09-29 06:56 METAR KMDT 291056Z 11013KT 9SM -RA OVC011 16/14 A3015 RMK AO2 SLP209 P0006
                 T01560144 =
2016-09-29 05:56 METAR KMDT 290956Z 11016KT 6SM RA OVC012 15/14 A3013 RMK AO2 PK WND 10027/0936
                 SLP202 P0002 T01500144 =
2016-09-29 04:56 METAR KMDT 290856Z 10013G22KT 7SM -RA OVC014 15/14 A3011 RMK AO2 SLP197 P0013
                 60019 T01500144 58006 =
2016-09-29 04:24 METAR KMDT 290824Z 10012KT 5SM RA FEW008 OVC014 15/14 A3013 RMK AO2 P0009
                 T01500144 =
2016-09-29 03:56 METAR KMDT 290756Z 10012KT 4SM RA OVC013 15/14 A3014 RMK AO2 RAE07B24 SLP207
                 P0006 T01500144 =
2016-09-29 02:56 METAR KMDT 290656Z 08009KT 10SM -RA BKN014 OVC018 16/14 A3012 RMK AO2 RAE02B49
                 SLP201 P0000 T01560144 =
2016-09-29 01:56 METAR KMDT 290556Z 09013KT 10SM -RA BKN012 OVC019 16/15 A3013 RMK AO2 SLP203
                 P0006 60009 T01560150 10189 20156 55002 =
2016-09-29 00:56 METAR KMDT 290456Z 10013G21KT 4SM RA BR BKN013 OVC019 16/15 A3012 RMK AO2 RAB05
                 SLP200 P0002 T01610150 402390122 =
2016-09-28 23:56 METAR KMDT 290356Z COR 11014G18KT 7SM OVC013 17/16 A3014 =
2016-09-28 23:54 METAR KMDT 290354Z 10011G18KT 7SM OVC013 17/16 A3014 RMK AO2 LTG DSNT S RAE36
                 P0001 =
2016-09-28 23:22 METAR KMDT 290322Z 12015G21KT 7SM -RA OVC015 17/16 A3013 RMK AO2 P0001 T01670156
                 =
2016-09-28 22:56 METAR KMDT 290256Z 10014KT 5SM -RA BR OVC014 17/16 A3013 RMK AO2 RAE33B51 SLP203
                 P0000 60000 T01720161 51023 =
2016-09-28 21:56 METAR KMDT 290156Z 11015KT 7SM -RA OVC014 18/16 A3011 RMK AO2 RAB55 SLP196 P0000
                 T01780161 =
2016-09-28 21:14 METAR KMDT 290114Z 11014G21KT 10SM OVC014 18/17 A3010 RMK AO2 T01830167 =
2016-09-28 20:56 METAR KMDT 290056Z 12013G22KT 10SM OVC016 18/17 A3010 RMK AO2 PK WND 11027/0034
                 SLP193 T01830167 =
2016-09-28 19:56 METAR KMDT 282356Z 09009KT 10SM BKN016 OVC023 19/18 A3006 RMK AO2 RAB01E10
                 SLP181 CB DSNT SW MOV NE P0000 60012 T01890178 10211 20189 55001 =
2016-09-28 19:25 METAR KMDT 282325Z 09007KT 10SM BKN014 BKN019 BKN026 19/18 A3007 RMK AO2 LTG
                 DSNT SW RAB01E10 CB DSNT SW MOV NE P0000 T01890178 =
2016-09-28 18:56 METAR KMDT 282256Z 08006KT 9SM BKN018 OVC026 19/18 A3006 =
2016-09-28 17:56 METAR KMDT 282156Z 10007KT 7SM -RA SCT017 BKN028 OVC038 19/18 A3007 RMK AO2 LTG
                 DSNT SE RAB43 SLP181 P0000 T01940183 =
2016-09-28 17:30 METAR KMDT 282130Z 11007KT 9SM BKN020 BKN028 OVC035 19/18 A3006 RMK AO2
                 T01940178 =
2016-09-28 17:09 METAR KMDT 282109Z 07008KT 9SM SCT023 OVC032 19/18 A3003 =
2016-09-28 16:56 METAR KMDT 282056Z 07007KT 9SM BKN022 OVC032 19/18 A3004 RMK AO2 RAE28 SLP172
                 P0000 60012 T01940178 56006 =
2016-09-28 16:54 METAR KMDT 282054Z 08007KT 9SM BKN022 OVC032 19/18 A3004 RMK AO2 RAE28 P0000 =
2016-09-28 15:56 METAR KMDT 281956Z 09008KT 7SM -RA FEW025 BKN045 OVC055 19/17 A3005 RMK AO2
                 RAE24B51 SLP176 P0012 T01940172 =
2016-09-28 15:25 METAR KMDT 281925Z 11008KT 10SM SCT026 OVC041 19/17 A3006 RMK AO2 RAE24 P0012
                 T01940167 =
2016-09-28 15:07 METAR KMDT 281907Z 11007KT 2 1/2SM R13/5000VP6000FT RA BR BKN042 BKN060 OVC075
                 19/17 A3006 =
2016-09-28 15:00 METAR KMDT 281900Z 12010KT 1 3/4SM R13/5000VP6000FT RA BR FEW030 BKN048 OVC070
                 19/17 A3005 RMK AO2 P0006 T01890167 =
2016-09-28 14:56 METAR KMDT 281856Z 13010KT 3SM R13/5000VP6000FT RA FEW030 BKN050 OVC075 19/16
                 A3005 RMK AO2 RAB27 SLP177 P0000 T01940161 =
2016-09-28 13:56 METAR KMDT 281756Z 12014KT 10SM FEW035 BKN075 21/15 A3005 =
2016-09-28 12:56 METAR KMDT 281656Z 11017KT 10SM BKN110 23/13 A3004 =
2016-09-28 11:56 METAR KMDT 281556Z 13012G18KT 10SM SCT065 23/11 A3004 RMK AO2 SLP172 T02280106 =

Support USWX by starting your Amazon purchase here.